Terminal Aerodrome Forecast
Issued by NWS Tampa Bay Area, FL

Home | Current Version | Previous Version | Text Only | Print | Product List | Glossary On
Versions: 1 2 3 4 5 6 7 8 9 10 11 12 13 14
000
FTUS42 KTBW 260525 AAA
TAFSRQ
TAF AMD
KSRQ 260525Z 2605/2706 07005KT P6SM SCT250
     FM261400 08009KT P6SM SCT025 BKN250
     FM261800 07007KT P6SM VCTS SCT025CB BKN050
     FM270000 07007KT P6SM SCT035 BKN250=

USA.gov is the U.S. government's official web portal to all federal, state and local government web resources and services.